Time;durP1;ratioP1;P1;durP2;ratioP2;P2;SDS_P1;SDS_P2;PMS_P1;PMS_P2;Temp;Humidity;BMP_temperature;BMP_pressure;BME280_temperature;BME280_humidity;BME280_pressure;Samples;Min_cycle;Max_cycle;Signal;HPM_P1;HPM_P2
2023/03/18 00:01:36;;;;;;;;;;;;;;;-140.72;0.00;52750.03;5047074;28;19932;-69
2023/03/18 00:04:03;;;;;;;;;;;;;;;-140.72;0.00;52829.19;5049421;28;20383;-69
2023/03/18 00:06:28;;;;;;;;;;;;;;;-140.72;0.00;52792.66;5069726;28;19977;-70
2023/03/18 00:08:54;;;;;;;;;;;;;;;-140.72;0.00;52825.13;5070849;28;19928;-69
2023/03/18 00:11:22;;;;;;;;;;;;;;;-140.72;0.00;52804.81;5049319;28;19927;-69
2023/03/18 00:13:48;;;;;;;;;;;;;;;-140.72;0.00;52812.94;5051791;28;20054;-69
2023/03/18 00:16:14;;;;;;;;;;;;;;;-140.72;0.00;52837.28;5070666;28;20027;-69
2023/03/18 00:18:40;;;;;;;;;;;;;;;-140.72;0.00;52841.34;5053114;28;20011;-69
2023/03/18 00:21:05;;;;;;;;;;;;;;;-140.72;0.00;52798.72;5053545;28;19928;-69
2023/03/18 00:23:31;;;;;;;;;;;;;;;-140.72;0.00;52829.19;5071934;28;20070;-69
2023/03/18 00:25:59;;;;;;;;;;;;;;;-140.72;0.00;52800.75;5068424;28;19924;-69
2023/03/18 00:28:25;;;;;;;;;;;;;;;-140.72;0.00;52837.28;5052430;28;19924;-69
2023/03/18 00:30:51;;;;;;;;;;;;;;;-140.72;0.00;52812.94;5070258;28;19928;-70
2023/03/18 00:33:16;;;;;;;;;;;;;;;-140.72;0.00;52796.72;5071076;28;20354;-69
2023/03/18 00:35:44;;;;;;;;;;;;;;;-140.72;0.00;52786.56;5070648;28;20023;-69
2023/03/18 00:38:14;;;;;;;;;;;;;;;-140.72;0.00;52827.16;5069150;28;19964;-69
2023/03/18 00:40:52;;;;;;;;;;;;;;;-140.72;0.00;52819.03;5051001;28;19928;-69
2023/03/18 00:43:17;;;;;;;;;;;;;;;-140.72;0.00;52814.97;5068990;28;19929;-70
2023/03/18 00:45:43;;;;;;;;;;;;;;;-140.72;0.00;52814.97;5050879;28;19924;-71
2023/03/18 00:48:09;;;;;;;;;;;;;;;-140.72;0.00;52847.44;5070358;28;20374;-70
2023/03/18 00:50:35;;;;;;;;;;;;;;;-140.72;0.00;52845.41;5051336;28;19920;-71
2023/03/18 00:53:01;;;;;;;;;;;;;;;-140.72;0.00;52829.19;5051979;28;20263;-70
2023/03/18 00:55:27;;;;;;;;;;;;;;;-140.72;0.00;52812.94;5069444;28;19972;-70
2023/03/18 00:57:52;;;;;;;;;;;;;;;-140.72;0.00;52843.38;5067277;28;19921;-70
2023/03/18 01:00:18;;;;;;;;;;;;;;;-140.72;0.00;52831.19;5068476;28;19966;-70
2023/03/18 01:02:44;;;;;;;;;;;;;;;-140.72;0.00;52871.78;5070537;28;19974;-69
2023/03/18 01:05:10;;;;;;;;;;;;;;;-140.72;0.00;52833.22;5070040;28;19942;-69
2023/03/18 01:07:36;;;;;;;;;;;;;;;-140.72;0.00;52800.75;5052255;28;19963;-69
2023/03/18 01:10:02;;;;;;;;;;;;;;;-140.72;0.00;52847.44;5069466;28;19971;-69
2023/03/18 01:12:27;;;;;;;;;;;;;;;-140.72;0.00;52855.56;5069620;28;20290;-69
2023/03/18 01:14:52;;;;;;;;;;;;;;;-140.72;0.00;52827.16;5068980;28;19984;-70
2023/03/18 01:17:17;;;;;;;;;;;;;;;-140.72;0.00;52849.47;5070366;28;19920;-70
2023/03/18 01:19:43;;;;;;;;;;;;;;;-140.72;0.00;52845.41;5071001;28;19927;-70
2023/03/18 01:22:08;;;;;;;;;;;;;;;-140.72;0.00;52853.53;5070393;28;20051;-70
2023/03/18 01:24:35;;;;;;;;;;;;;;;-140.72;0.00;52833.22;5067252;28;20000;-69
2023/03/18 01:27:00;;;;;;;;;;;;;;;-140.72;0.00;52808.88;5069298;28;19925;-69
2023/03/18 01:29:26;;;;;;;;;;;;;;;-140.72;0.00;52825.13;5069691;28;19924;-69
2023/03/18 01:31:51;;;;;;;;;;;;;;;-140.72;0.00;52814.97;5069739;28;19983;-69
2023/03/18 01:34:17;;;;;;;;;;;;;;;-140.72;0.00;52780.47;5066646;28;19943;-70
2023/03/18 01:36:42;;;;;;;;;;;;;;;-140.72;0.00;52837.28;5067361;28;19978;-70
2023/03/18 01:39:09;;;;;;;;;;;;;;;-140.72;0.00;52819.03;5070014;28;19928;-69
2023/03/18 01:41:35;;;;;;;;;;;;;;;-140.72;0.00;52859.63;5068579;28;19920;-70
2023/03/18 01:44:03;;;;;;;;;;;;;;;-140.72;0.00;52833.22;5050272;28;19921;-70
2023/03/18 01:46:36;;;;;;;;;;;;;;;-140.72;0.00;52819.03;5067430;28;19925;-70
2023/03/18 01:49:03;;;;;;;;;;;;;;;-140.72;0.00;52817.00;5045082;28;19921;-70
2023/03/18 01:51:29;;;;;;;;;;;;;;;-140.72;0.00;52819.03;5049693;28;20006;-70
2023/03/18 01:53:56;;;;;;;;;;;;;;;-140.72;0.00;52821.06;5051906;28;19929;-70
2023/03/18 01:56:22;;;;;;;;;;;;;;;-140.72;0.00;52788.59;5069304;28;19955;-70
2023/03/18 01:58:51;;;;;;;;;;;;;;;-140.72;0.00;52819.03;5050346;28;19963;-70
2023/03/18 02:01:22;;;;;;;;;;;;;;;-140.72;0.00;52857.59;5066634;28;19967;-69
2023/03/18 02:03:49;;;;;;;;;;;;;;;-140.72;0.00;52843.38;5051067;28;20294;-69
2023/03/18 02:06:14;;;;;;;;;;;;;;;-140.72;0.00;52855.56;5067028;28;19935;-69
2023/03/18 02:08:40;;;;;;;;;;;;;;;-140.72;0.00;52857.59;5069981;28;19920;-68
2023/03/18 02:11:06;;;;;;;;;;;;;;;-140.72;0.00;52841.34;5067697;28;20382;-69
2023/03/18 02:13:34;;;;;;;;;;;;;;;-140.72;0.00;52837.28;5065970;28;19927;-69
2023/03/18 02:16:09;;;;;;;;;;;;;;;-140.72;0.00;52829.19;5045875;28;19920;-69
2023/03/18 02:18:40;;;;;;;;;;;;;;;-140.72;0.00;52881.94;5067829;28;19928;-70
2023/03/18 02:21:12;;;;;;;;;;;;;;;-140.72;0.00;52841.34;5068840;28;19924;-69
2023/03/18 02:23:51;;;;;;;;;;;;;;;-140.72;0.00;52861.66;5066114;28;19924;-69
2023/03/18 02:26:35;;;;;;;;;;;;;;;-140.72;0.00;52835.25;5067363;28;19929;-69
2023/03/18 02:29:02;;;;;;;;;;;;;;;-140.72;0.00;52853.53;5051499;28;20297;-69
2023/03/18 02:31:28;;;;;;;;;;;;;;;-140.72;0.00;52845.41;5068459;28;19928;-69
2023/03/18 02:33:54;;;;;;;;;;;;;;;-140.72;0.00;52853.53;5067801;28;19920;-70
2023/03/18 02:36:27;;;;;;;;;;;;;;;-140.72;0.00;52821.06;5068972;28;20017;-70
2023/03/18 02:38:53;;;;;;;;;;;;;;;-140.72;0.00;52843.38;5050706;28;19946;-70
2023/03/18 02:41:19;;;;;;;;;;;;;;;-140.72;0.00;52849.47;5046230;28;19928;-70
2023/03/18 02:43:45;;;;;;;;;;;;;;;-140.72;0.00;52810.91;5068474;28;19925;-70
2023/03/18 02:46:22;;;;;;;;;;;;;;;-140.72;0.00;52841.34;5049859;28;20310;-70
2023/03/18 02:48:48;;;;;;;;;;;;;;;-140.72;0.00;52863.66;5068870;28;19920;-70
2023/03/18 02:51:15;;;;;;;;;;;;;;;-140.72;0.00;52821.06;5048808;28;19920;-71
2023/03/18 02:53:40;;;;;;;;;;;;;;;-140.72;0.00;52843.38;5049874;28;19920;-69
2023/03/18 02:56:06;;;;;;;;;;;;;;;-140.72;0.00;52831.19;5067481;28;19925;-70
2023/03/18 02:58:31;;;;;;;;;;;;;;;-140.72;0.00;52823.09;5068221;28;20015;-70
2023/03/18 03:00:57;;;;;;;;;;;;;;;-140.72;0.00;52849.47;5049656;28;19920;-69
2023/03/18 03:03:22;;;;;;;;;;;;;;;-140.72;0.00;52863.66;5051455;28;19927;-69
2023/03/18 03:05:48;;;;;;;;;;;;;;;-140.72;0.00;52817.00;5065888;28;20418;-69
2023/03/18 03:08:14;;;;;;;;;;;;;;;-140.72;0.00;52821.06;5067982;28;19970;-69
2023/03/18 03:10:39;;;;;;;;;;;;;;;-140.72;0.00;52774.38;5064893;28;19935;-69
2023/03/18 03:13:06;;;;;;;;;;;;;;;-140.72;0.00;52863.66;5050383;28;19982;-69
2023/03/18 03:15:31;;;;;;;;;;;;;;;-140.72;0.00;52861.66;5068036;28;19975;-69
2023/03/18 03:17:57;;;;;;;;;;;;;;;-140.72;0.00;52814.97;5050346;28;19924;-69
2023/03/18 03:20:22;;;;;;;;;;;;;;;-140.72;0.00;52821.06;5067089;28;20271;-69
2023/03/18 03:22:47;;;;;;;;;;;;;;;-140.72;0.00;52835.25;5068000;28;20358;-69
2023/03/18 03:25:13;;;;;;;;;;;;;;;-140.72;0.00;52792.66;5049688;28;20429;-70
2023/03/18 03:27:38;;;;;;;;;;;;;;;-140.72;0.00;52825.13;5050959;28;19920;-69
2023/03/18 03:30:06;;;;;;;;;;;;;;;-140.72;0.00;52774.38;5067221;28;19928;-69
2023/03/18 03:32:31;;;;;;;;;;;;;;;-140.72;0.00;52817.00;5068000;28;19967;-69
2023/03/18 03:34:56;;;;;;;;;;;;;;;-140.72;0.00;52825.13;5068160;28;19971;-70
2023/03/18 03:37:22;;;;;;;;;;;;;;;-140.72;0.00;52821.06;5068809;28;19921;-69
2023/03/18 03:39:47;;;;;;;;;;;;;;;-140.72;0.00;52851.50;5069939;28;20394;-69
2023/03/18 03:42:13;;;;;;;;;;;;;;;-140.72;0.00;52831.19;5072738;28;20374;-69
2023/03/18 03:44:39;;;;;;;;;;;;;;;-140.72;0.00;52861.66;5051555;28;19917;-68
2023/03/18 03:47:08;;;;;;;;;;;;;;;-140.72;0.00;52845.41;5073063;28;19948;-69
2023/03/18 03:49:33;;;;;;;;;;;;;;;-140.72;0.00;52849.47;5068383;28;19916;-69
2023/03/18 03:51:58;;;;;;;;;;;;;;;-140.72;0.00;52871.78;5073189;28;19923;-69
2023/03/18 03:54:24;;;;;;;;;;;;;;;-140.72;7.64;52853.53;5070251;28;20398;-69
2023/03/18 03:56:50;;;;;;;;;;;;;;;-140.72;17.51;52837.28;5065480;28;19916;-69
2023/03/18 03:59:15;;;;;;;;;;;;;;;-140.72;39.48;52831.19;5055302;28;19943;-69
2023/03/18 04:01:40;;;;;;;;;;;;;;;-140.72;51.17;52806.84;5045268;28;20347;-69
2023/03/18 04:04:06;;;;;;;;;;;;;;;-140.72;62.31;52814.97;5071823;28;20301;-69
2023/03/18 04:06:31;;;;;;;;;;;;;;;-140.72;70.34;52833.22;5049696;28;19924;-69
2023/03/18 04:08:56;;;;;;;;;;;;;;;-140.72;87.35;52792.66;5052237;28;19966;-69
2023/03/18 04:11:21;;;;;;;;;;;;;;;-140.72;100.00;52869.75;5071983;28;19924;-69
2023/03/18 04:13:47;;;;;;;;;;;;;;;-140.72;100.00;52869.75;5051536;28;20000;-69
2023/03/18 04:16:13;;;;;;;;;;;;;;;-140.72;100.00;52877.88;5053049;28;19956;-69
2023/03/18 04:18:38;;;;;;;;;;;;;;;-140.72;100.00;52867.72;5046558;28;19928;-69
2023/03/18 04:21:03;;;;;;;;;;;;;;;-140.72;100.00;52843.38;5069953;28;20367;-70
2023/03/18 04:23:29;;;;;;;;;;;;;;;-140.72;100.00;52831.19;5064752;28;19927;-69
2023/03/18 04:25:54;;;;;;;;;;;;;;;-140.72;100.00;52831.19;5057180;28;20026;-69
2023/03/18 04:28:19;;;;;;;;;;;;;;;-140.72;100.00;52853.53;5068769;28;20013;-69
2023/03/18 04:30:46;;;;;;;;;;;;;;;-140.72;100.00;52865.69;5054618;28;19924;-69
2023/03/18 04:33:13;;;;;;;;;;;;;;;-140.72;100.00;52853.53;5054202;28;19927;-69
2023/03/18 04:35:38;;;;;;;;;;;;;;;-140.72;100.00;52817.00;5071617;28;20002;-69
2023/03/18 04:38:03;;;;;;;;;;;;;;;-140.72;100.00;52849.47;5072166;28;19979;-69
2023/03/18 04:40:28;;;;;;;;;;;;;;;-140.72;100.00;52821.06;5072657;28;19920;-69
2023/03/18 04:42:54;;;;;;;;;;;;;;;-140.72;100.00;52857.59;5047450;28;19928;-69
2023/03/18 04:45:19;;;;;;;;;;;;;;;-140.72;100.00;52814.97;5070450;28;21770;-69
2023/03/18 04:47:44;;;;;;;;;;;;;;;-140.72;100.00;52831.19;5064715;28;19924;-68
2023/03/18 04:50:11;;;;;;;;;;;;;;;-140.72;100.00;52837.28;5047694;28;19967;-70
2023/03/18 04:52:37;;;;;;;;;;;;;;;-140.72;100.00;52855.56;5056633;28;19920;-68
2023/03/18 04:55:02;;;;;;;;;;;;;;;-140.72;100.00;52875.84;5053760;28;19917;-69
2023/03/18 04:57:28;;;;;;;;;;;;;;;-140.72;100.00;52821.06;5056377;28;19928;-69
2023/03/18 04:59:53;;;;;;;;;;;;;;;-140.72;100.00;52861.66;5075869;28;19970;-70
2023/03/18 05:02:18;;;;;;;;;;;;;;;-140.72;100.00;52877.88;5080473;28;20382;-69
2023/03/18 05:04:44;;;;;;;;;;;;;;;-140.72;100.00;52829.19;5053161;28;19964;-69
2023/03/18 05:07:11;;;;;;;;;;;;;;;-140.72;100.00;52886.00;5049288;28;19921;-69
2023/03/18 05:09:36;;;;;;;;;;;;;;;-140.72;100.00;52867.72;5057258;28;20452;-69
2023/03/18 05:12:02;;;;;;;;;;;;;;;-140.72;100.00;52849.47;5054800;28;19920;-69
2023/03/18 05:14:27;;;;;;;;;;;;;;;-140.72;100.00;52914.41;5074581;28;20413;-69
2023/03/18 05:16:53;;;;;;;;;;;;;;;-140.72;100.00;52829.19;5056700;28;20307;-69
2023/03/18 05:19:18;;;;;;;;;;;;;;;-140.72;100.00;52867.72;5053902;28;19920;-69
2023/03/18 05:21:44;;;;;;;;;;;;;;;-140.72;100.00;52869.75;5072756;28;19916;-70
2023/03/18 05:24:09;;;;;;;;;;;;;;;-140.72;100.00;52881.94;5049982;28;20007;-69
2023/03/18 05:26:34;;;;;;;;;;;;;;;-140.72;100.00;52906.28;5071900;28;20379;-71
2023/03/18 05:29:00;;;;;;;;;;;;;;;-140.72;100.00;52869.75;5075210;28;19920;-69
2023/03/18 05:31:25;;;;;;;;;;;;;;;-140.72;100.00;52841.34;5074681;28;20039;-68
2023/03/18 05:33:50;;;;;;;;;;;;;;;-140.72;100.00;52853.53;5074547;28;20347;-69
2023/03/18 05:36:16;;;;;;;;;;;;;;;-140.72;100.00;52873.81;5051582;28;21130;-69
2023/03/18 05:38:41;;;;;;;;;;;;;;;-140.72;100.00;52900.19;5068648;28;19977;-68
2023/03/18 05:41:07;;;;;;;;;;;;;;;-140.72;100.00;52877.88;5070183;28;19920;-69
2023/03/18 05:43:32;;;;;;;;;;;;;;;-140.72;100.00;52837.28;5048119;28;20337;-70
2023/03/18 05:45:57;;;;;;;;;;;;;;;-140.72;100.00;52845.41;5050678;28;19928;-69
2023/03/18 05:48:23;;;;;;;;;;;;;;;-140.72;100.00;52857.59;5049257;28;19920;-69
2023/03/18 05:50:48;;;;;;;;;;;;;;;-140.72;100.00;52853.53;5052374;28;19928;-69
2023/03/18 05:53:15;;;;;;;;;;;;;;;-140.72;100.00;52821.06;5050447;28;19973;-68
2023/03/18 05:55:41;;;;;;;;;;;;;;;-140.72;100.00;52845.41;5067018;28;19952;-69
2023/03/18 05:58:06;;;;;;;;;;;;;;;-140.72;100.00;52845.41;5067986;28;19927;-70
2023/03/18 06:00:32;;;;;;;;;;;;;;;-140.72;100.00;52831.19;5050157;28;19921;-70
2023/03/18 06:02:58;;;;;;;;;;;;;;;-140.72;100.00;52886.00;5067363;28;19936;-70
2023/03/18 06:05:24;;;;;;;;;;;;;;;-140.72;100.00;52890.06;5068552;28;19932;-69
2023/03/18 06:07:50;;;;;;;;;;;;;;;-140.72;100.00;52843.38;5065748;28;19920;-69
2023/03/18 06:10:16;;;;;;;;;;;;;;;-140.72;100.00;52835.25;5069929;28;19931;-69
2023/03/18 06:12:41;;;;;;;;;;;;;;;-140.72;100.00;52896.16;5069292;28;19921;-69
2023/03/18 06:15:07;;;;;;;;;;;;;;;-140.72;100.00;52855.56;5069787;28;19928;-69
2023/03/18 06:17:32;;;;;;;;;;;;;;;-140.72;100.00;52875.84;5053744;28;20290;-69
2023/03/18 06:19:58;;;;;;;;;;;;;;;-140.72;100.00;52857.59;5068447;28;19921;-69
2023/03/18 06:22:25;;;;;;;;;;;;;;;-140.72;100.00;52873.81;5067129;28;20030;-68
2023/03/18 06:24:51;;;;;;;;;;;;;;;-140.72;100.00;52855.56;5066632;28;19920;-70
2023/03/18 06:27:16;;;;;;;;;;;;;;;-140.72;100.00;52892.09;5065948;28;19928;-71
2023/03/18 06:29:41;;;;;;;;;;;;;;;-140.72;100.00;52869.75;5049320;28;19936;-71
2023/03/18 06:32:07;;;;;;;;;;;;;;;-140.72;100.00;52879.91;5066315;28;20330;-74
2023/03/18 06:34:33;;;;;;;;;;;;;;;-140.72;100.00;52926.59;5070910;28;19952;-70
2023/03/18 06:36:59;;;;;;;;;;;;;;;-140.72;100.00;52857.59;5050590;28;20278;-70
2023/03/18 06:39:24;;;;;;;;;;;;;;;-140.72;100.00;52881.94;5052965;28;19920;-70
2023/03/18 06:41:51;;;;;;;;;;;;;;;-140.72;100.00;52871.78;5072368;28;19928;-70
2023/03/18 06:44:16;;;;;;;;;;;;;;;-140.72;100.00;52888.03;5066681;28;20031;-70
2023/03/18 06:46:41;;;;;;;;;;;;;;;-140.72;100.00;52869.75;5049242;28;19963;-70
2023/03/18 06:49:07;;;;;;;;;;;;;;;-140.72;100.00;52869.75;5049677;28;19967;-70
2023/03/18 06:51:35;;;;;;;;;;;;;;;-140.72;100.00;52857.59;5046602;28;19956;-70
2023/03/18 06:54:00;;;;;;;;;;;;;;;-140.72;100.00;52833.22;5064017;28;20032;-70
2023/03/18 06:56:26;;;;;;;;;;;;;;;-140.72;100.00;52837.28;5066166;28;20003;-70
2023/03/18 06:58:51;;;;;;;;;;;;;;;-140.72;100.00;52910.34;5065935;28;19974;-70
2023/03/18 07:01:18;;;;;;;;;;;;;;;-140.72;100.00;52869.75;5065177;28;19928;-70
2023/03/18 07:03:43;;;;;;;;;;;;;;;-140.72;100.00;52843.38;5069660;28;19920;-70
2023/03/18 07:06:09;;;;;;;;;;;;;;;-140.72;100.00;52886.00;5047111;28;19931;-70
2023/03/18 07:08:34;;;;;;;;;;;;;;;-140.72;100.00;52881.94;5051332;28;19995;-71
2023/03/18 07:11:00;;;;;;;;;;;;;;;-140.72;100.00;52865.69;5067039;28;20347;-70
2023/03/18 07:13:25;;;;;;;;;;;;;;;-140.72;100.00;52865.69;5068663;28;19924;-70
2023/03/18 07:15:50;;;;;;;;;;;;;;;-140.72;100.00;52833.22;5068592;28;19959;-71
2023/03/18 07:18:16;;;;;;;;;;;;;;;-140.72;100.00;52873.81;5049510;28;21410;-69
2023/03/18 07:20:42;;;;;;;;;;;;;;;-140.72;100.00;52869.75;5069736;28;19928;-70
2023/03/18 07:23:07;;;;;;;;;;;;;;;-140.72;100.00;52821.06;5051326;28;20379;-70
2023/03/18 07:25:32;;;;;;;;;;;;;;;-140.72;100.00;52865.69;5066675;28;20165;-70
2023/03/18 07:27:59;;;;;;;;;;;;;;;-140.72;100.00;52859.63;5069688;28;19920;-69
2023/03/18 07:30:25;;;;;;;;;;;;;;;-140.72;100.00;52861.66;5072476;28;19920;-69
2023/03/18 07:32:51;;;;;;;;;;;;;;;-140.72;100.00;52865.69;5067151;28;19921;-69
2023/03/18 07:35:16;;;;;;;;;;;;;;;-140.72;100.00;52853.53;5048843;28;19927;-70
2023/03/18 07:37:41;;;;;;;;;;;;;;;-140.72;100.00;52875.84;5054854;28;20009;-70
2023/03/18 07:40:07;;;;;;;;;;;;;;;-140.72;100.00;52906.28;5068908;28;19921;-70
2023/03/18 07:42:33;;;;;;;;;;;;;;;-140.72;100.00;52853.53;5066019;28;20384;-70
2023/03/18 07:44:58;;;;;;;;;;;;;;;-140.72;100.00;52837.28;5065636;28;19924;-70
2023/03/18 07:47:23;;;;;;;;;;;;;;;-140.72;100.00;52853.53;5048983;28;20094;-70
2023/03/18 07:49:50;;;;;;;;;;;;;;;-140.72;100.00;52847.44;5066758;28;19920;-70
2023/03/18 07:52:15;;;;;;;;;;;;;;;-140.72;100.00;52859.63;5068436;28;19935;-70
2023/03/18 07:54:41;;;;;;;;;;;;;;;-140.72;100.00;52851.50;5066384;28;19966;-70
2023/03/18 07:57:06;;;;;;;;;;;;;;;-140.72;100.00;52835.25;5047197;28;19978;-70
2023/03/18 07:59:31;;;;;;;;;;;;;;;-140.72;100.00;52845.41;5067912;28;19928;-69
2023/03/18 08:01:57;;;;;;;;;;;;;;;-140.72;100.00;52853.53;5048083;28;19925;-69
2023/03/18 08:04:22;;;;;;;;;;;;;;;-140.72;100.00;52833.22;5067264;28;20434;-70
2023/03/18 08:06:48;;;;;;;;;;;;;;;-140.72;100.00;52837.28;5041756;28;19925;-69
2023/03/18 08:09:13;;;;;;;;;;;;;;;-140.72;100.00;52845.41;5049746;28;19920;-69
2023/03/18 08:11:38;;;;;;;;;;;;;;;-140.72;100.00;52847.44;5048139;28;19925;-69
2023/03/18 08:14:03;;;;;;;;;;;;;;;-140.72;100.00;52814.97;5066435;28;19927;-69
2023/03/18 08:16:29;;;;;;;;;;;;;;;-140.72;100.00;52823.09;5067212;28;20460;-70
2023/03/18 08:18:54;;;;;;;;;;;;;;;-140.72;100.00;52845.41;5048694;28;20422;-70
2023/03/18 08:21:19;;;;;;;;;;;;;;;-140.72;100.00;52849.47;5061731;28;20325;-71
2023/03/18 08:23:46;;;;;;;;;;;;;;;-140.72;100.00;52782.50;5066182;28;19929;-69
2023/03/18 08:26:11;;;;;;;;;;;;;;;-140.72;100.00;52784.53;5069558;28;19925;-69
2023/03/18 08:28:37;;;;;;;;;;;;;;;-140.72;100.00;52879.91;5071958;28;19925;-69
2023/03/18 08:31:04;;;;;;;;;;;;;;;-140.72;100.00;52829.19;5068749;28;19924;-69
2023/03/18 08:33:29;;;;;;;;;;;;;;;-140.72;100.00;52845.41;5067998;28;19921;-70
2023/03/18 08:35:55;;;;;;;;;;;;;;;-140.72;100.00;52817.00;5068660;28;20281;-70
2023/03/18 08:38:20;;;;;;;;;;;;;;;-140.72;100.00;52790.63;5071857;28;19921;-71
2023/03/18 08:40:47;;;;;;;;;;;;;;;-140.72;100.00;52821.06;5071700;28;19969;-69
2023/03/18 08:43:12;;;;;;;;;;;;;;;-140.72;100.00;52837.28;5048942;28;20397;-71
2023/03/18 08:45:37;;;;;;;;;;;;;;;-140.72;100.00;52784.53;5069117;28;19920;-70
2023/03/18 08:48:03;;;;;;;;;;;;;;;-140.72;100.00;52814.97;5069428;28;19929;-70
2023/03/18 08:50:28;;;;;;;;;;;;;;;-140.72;100.00;52774.38;5050776;28;19920;-70
2023/03/18 08:52:57;;;;;;;;;;;;;;;-140.72;100.00;52802.78;5048491;28;20294;-70
2023/03/18 08:55:27;;;;;;;;;;;;;;;-140.72;100.00;52774.38;5052820;28;19928;-70
2023/03/18 08:57:52;;;;;;;;;;;;;;;-140.72;100.00;52808.88;5050347;28;20458;-70
2023/03/18 09:00:17;;;;;;;;;;;;;;;-140.72;100.00;52812.94;5071628;28;19966;-70
2023/03/18 09:02:43;;;;;;;;;;;;;;;-140.72;100.00;52800.75;5051178;28;20271;-70
2023/03/18 09:05:08;;;;;;;;;;;;;;;-140.72;100.00;52800.75;5071444;28;19920;-70
2023/03/18 09:07:34;;;;;;;;;;;;;;;-140.72;100.00;52808.88;5047481;28;20379;-70
2023/03/18 09:09:59;;;;;;;;;;;;;;;-140.72;100.00;52780.47;5075597;28;19921;-75
2023/03/18 09:12:24;;;;;;;;;;;;;;;-140.72;100.00;52784.53;5057470;28;19920;-73
2023/03/18 09:14:49;;;;;;;;;;;;;;;-140.72;100.00;52786.56;5070553;28;19920;-73
2023/03/18 09:17:15;;;;;;;;;;;;;;;-140.72;100.00;52800.75;5071740;28;19971;-72
2023/03/18 09:19:40;;;;;;;;;;;;;;;-140.72;100.00;52808.88;5052068;28;20018;-76
2023/03/18 09:22:06;;;;;;;;;;;;;;;-140.72;100.00;52743.94;5069880;28;19937;-74
2023/03/18 09:24:31;;;;;;;;;;;;;;;-140.72;100.00;52768.28;5068418;28;19944;-73
2023/03/18 09:26:58;;;;;;;;;;;;;;;-140.72;100.00;52758.16;5070224;28;19921;-73
2023/03/18 09:29:23;;;;;;;;;;;;;;;-140.72;100.00;52727.72;5070643;28;19924;-70
2023/03/18 09:31:49;;;;;;;;;;;;;;;-140.72;100.00;52735.81;5049566;28;19928;-70
2023/03/18 09:34:14;;;;;;;;;;;;;;;-140.72;100.00;52737.84;5050284;28;20681;-70
2023/03/18 09:36:42;;;;;;;;;;;;;;;-140.72;100.00;52748.00;5046734;28;19928;-71
2023/03/18 09:39:08;;;;;;;;;;;;;;;-140.72;100.00;52733.78;5047986;28;20420;-71
2023/03/18 09:41:34;;;;;;;;;;;;;;;-140.72;100.00;52723.66;5067144;28;19928;-71
2023/03/18 09:44:07;;;;;;;;;;;;;;;-140.72;100.00;52745.97;5052481;28;19921;-71
2023/03/18 09:46:51;;;;;;;;;;;;;;;-140.72;100.00;52727.72;5049569;28;19959;-70
2023/03/18 09:49:33;;;;;;;;;;;;;;;-140.72;100.00;52739.88;5069229;28;20019;-72
2023/03/18 09:51:58;;;;;;;;;;;;;;;-140.72;100.00;52733.78;5048516;28;19927;-71
2023/03/18 09:54:30;;;;;;;;;;;;;;;-140.72;100.00;52731.75;5049833;28;20438;-70
2023/03/18 09:56:56;;;;;;;;;;;;;;;-140.72;100.00;52733.78;5070575;28;19978;-69
2023/03/18 09:59:29;;;;;;;;;;;;;;;-140.72;100.00;52772.34;5076287;28;19921;-69
2023/03/18 10:01:56;;;;;;;;;;;;;;;-140.72;100.00;52723.66;5051189;28;19920;-74
2023/03/18 10:04:24;;;;;;;;;;;;;;;-140.72;100.00;52727.72;5044675;28;19921;-70
2023/03/18 10:06:53;;;;;;;;;;;;;;;-140.72;100.00;52727.72;5045063;28;19920;-70
2023/03/18 10:09:29;;;;;;;;;;;;;;;-140.72;100.00;52764.25;5071714;28;21544;-70
2023/03/18 10:12:13;;;;;;;;;;;;;;;-140.72;100.00;52705.38;5070218;28;19921;-70
2023/03/18 10:14:42;;;;;;;;;;;;;;;-140.72;100.00;52752.06;5055134;28;19924;-70
2023/03/18 10:17:15;;;;;;;;;;;;;;;-140.72;100.00;52752.06;5053508;28;19921;-70
2023/03/18 10:19:45;;;;;;;;;;;;;;;-140.72;100.00;52739.88;5071501;28;19970;-70
2023/03/18 10:22:29;;;;;;;;;;;;;;;-140.72;100.00;52750.03;5071058;28;19921;-70
2023/03/18 10:25:12;;;;;;;;;;;;;;;-140.72;100.00;52760.19;5072647;28;19917;-70
2023/03/18 10:27:56;;;;;;;;;;;;;;;-140.72;100.00;52748.00;5047858;28;19926;-70
2023/03/18 10:30:28;;;;;;;;;;;;;;;-140.72;100.00;52750.03;5053440;28;19925;-71
2023/03/18 10:32:57;;;;;;;;;;;;;;;-140.72;100.00;52756.13;5072155;28;20425;-70
2023/03/18 10:35:32;;;;;;;;;;;;;;;-140.72;100.00;52699.31;5069496;28;20356;-70
2023/03/18 10:38:01;;;;;;;;;;;;;;;-140.72;100.00;52735.81;5052754;28;19927;-70
2023/03/18 10:40:28;;;;;;;;;;;;;;;-140.72;100.00;52703.34;5073326;28;20283;-72
2023/03/18 10:42:55;;;;;;;;;;;;;;;-140.72;100.00;52699.31;5049396;28;19921;-70
2023/03/18 10:45:25;;;;;;;;;;;;;;;-140.72;100.00;52731.75;5048006;28;19920;-70
2023/03/18 10:47:58;;;;;;;;;;;;;;;-140.72;100.00;52719.59;5052466;28;20316;-70
2023/03/18 10:50:38;;;;;;;;;;;;;;;-140.72;100.00;52668.84;5055905;28;20357;-70
2023/03/18 10:53:11;;;;;;;;;;;;;;;-140.72;100.00;52707.41;5071684;28;19943;-70
2023/03/18 10:55:39;;;;;;;;;;;;;;;-140.72;100.00;52739.88;5071627;28;19920;-70
2023/03/18 10:58:23;;;;;;;;;;;;;;;-140.72;100.00;52689.16;5052815;28;19924;-70
2023/03/18 11:00:50;;;;;;;;;;;;;;;-140.72;32.37;52715.53;5073285;28;19916;-69
2023/03/18 11:03:33;;;;;;;;;;;;;;;-140.72;36.36;52737.84;5068609;28;19920;-70
2023/03/18 11:06:00;;;;;;;;;;;;;;;-140.72;77.65;52758.16;5055319;28;20015;-70
2023/03/18 11:08:34;;;;;;;;;;;;;;;-140.72;100.00;52723.66;5054178;28;19935;-70
2023/03/18 11:11:17;;;;;;;;;;;;;;;-140.72;100.00;52756.13;5051001;28;20411;-70
2023/03/18 11:13:51;;;;;;;;;;;;;;;-140.72;100.00;52754.09;5060119;28;19921;-71
2023/03/18 11:16:28;;;;;;;;;;;;;;;-140.72;100.00;52764.25;5067557;28;19952;-70
2023/03/18 11:18:54;;;;;;;;;;;;;;;-140.72;100.00;52762.22;5068295;28;19920;-70
2023/03/18 11:21:19;;;;;;;;;;;;;;;-140.72;100.00;52723.66;5050794;28;20038;-70
2023/03/18 11:23:55;;;;;;;;;;;;;;;-140.72;93.52;52723.66;5073847;28;19960;-70
2023/03/18 11:26:25;;;;;;;;;;;;;;;-140.72;73.54;52745.97;5064443;28;19952;-71
2023/03/18 11:29:09;;;;;;;;;;;;;;;-140.72;61.84;52713.50;5069692;28;20407;-72
2023/03/18 11:31:46;;;;;;;;;;;;;;;-140.72;52.31;52709.44;5071330;28;19917;-70
2023/03/18 11:34:15;;;;;;;;;;;;;;;-140.72;49.72;52679.00;5053352;28;19921;-70
2023/03/18 11:36:40;;;;;;;;;;;;;;;-140.72;39.44;52705.38;5069619;28;19967;-70
2023/03/18 11:39:06;;;;;;;;;;;;;;;-140.72;25.25;52691.19;5054494;28;19921;-70
2023/03/18 11:41:31;;;;;;;;;;;;;;;-140.72;10.48;52703.34;5072277;28;19920;-72
2023/03/18 11:43:58;;;;;;;;;;;;;;;-140.72;0.21;52727.72;5070994;28;19963;-71
2023/03/18 11:46:26;;;;;;;;;;;;;;;-140.72;0.00;52699.31;5052953;28;19920;-71
2023/03/18 11:48:51;;;;;;;;;;;;;;;-140.72;0.00;52658.72;5053713;28;19921;-70
2023/03/18 11:51:35;;;;;;;;;;;;;;;-140.72;0.00;52731.75;5072156;28;19943;-70
2023/03/18 11:54:08;;;;;;;;;;;;;;;-140.72;0.00;52670.88;5056622;28;20037;-69
2023/03/18 11:56:37;;;;;;;;;;;;;;;-140.72;0.00;52691.19;5055172;28;19921;-70
2023/03/18 11:59:26;;;;;;;;;;;;;;;-140.72;0.00;52656.69;5054849;28;19920;-70
2023/03/18 12:02:01;;;;;;;;;;;;;;;-140.72;0.00;52620.16;5057779;28;19920;-70
2023/03/18 12:04:35;;;;;;;;;;;;;;;-140.72;0.00;52614.06;5053381;28;19947;-71
2023/03/18 12:07:20;;;;;;;;;;;;;;;-140.72;0.00;52650.59;5056539;28;19920;-69
2023/03/18 12:09:55;;;;;;;;;;;;;;;-140.72;0.00;52636.38;5071635;28;19925;-68
2023/03/18 12:12:40;;;;;;;;;;;;;;;-140.72;0.00;52638.41;5074768;28;19935;-68
2023/03/18 12:15:32;;;;;;;;;;;;;;;-140.72;0.00;52662.78;5074679;28;20024;-69
2023/03/18 12:17:58;;;;;;;;;;;;;;;-140.72;0.00;52644.50;5073222;28;19920;-67
2023/03/18 12:20:41;;;;;;;;;;;;;;;-140.72;0.00;52642.47;5073652;28;19921;-68
2023/03/18 12:23:10;;;;;;;;;;;;;;;-140.72;0.00;52666.84;5059113;28;19924;-68
2023/03/18 12:25:41;;;;;;;;;;;;;;;-140.72;0.00;52699.31;5057024;28;19966;-68
2023/03/18 12:28:06;;;;;;;;;;;;;;;-140.72;0.00;52660.75;5074471;28;19982;-68